Terminal Aerodrome Forecast
Issued by NWS Pittsburgh, PA

Home | Current Version | Previous Version | Text Only | Print | Product List | Glossary On
Versions: 1 2 3 4 5 6 7 8 9 10 11 12 13 14 15 16 17 18 19 20 21 22 23 24 25 26 27 28 29 30 31 32 33 34 35
132
FTUS41 KPBZ 142328
TAFPIT
TAF
KPIT 142328Z 1500/1606 11008KT P6SM OVC150
     FM150800 13008KT 4SM -SN OVC025
     FM151500 15010KT 3SM -SN OVC010
     FM152100 14009KT 2SM -SN OVC008
     FM160000 12005KT 3SM -RASN OVC004=

USA.gov is the U.S. government's official web portal to all federal, state and local government web resources and services.